createdAt,value
2022-10-30T00:00:59.543Z,100.00
2022-10-30T00:03:02.910Z,100.00
2022-10-30T00:05:06.957Z,100.00
2022-10-30T00:07:09.681Z,100.00
2022-10-30T00:09:12.379Z,100.00
2022-10-30T00:11:15.393Z,100.00
2022-10-30T00:13:20.533Z,100.00
2022-10-30T00:15:23.247Z,100.00
2022-10-30T00:17:26.113Z,100.00
2022-10-30T00:19:28.819Z,100.00
2022-10-30T00:21:31.516Z,100.00
2022-10-30T00:23:34.287Z,100.00
2022-10-30T00:25:37.501Z,100.00
2022-10-30T00:27:40.258Z,100.00
2022-10-30T00:29:44.515Z,100.00
2022-10-30T00:31:47.435Z,100.00
2022-10-30T00:33:51.295Z,100.00
2022-10-30T00:35:54.067Z,100.00
2022-10-30T00:37:58.294Z,100.00
2022-10-30T00:40:01.237Z,100.00
2022-10-30T00:42:04.010Z,100.00
2022-10-30T00:44:36.678Z,100.00
2022-10-30T00:46:42.189Z,100.00
2022-10-30T00:48:47.056Z,100.00
2022-10-30T00:50:49.856Z,100.00
2022-10-30T00:52:57.305Z,100.00
2022-10-30T00:55:05.003Z,100.00
2022-10-30T00:57:10.079Z,100.00
2022-10-30T00:59:17.124Z,100.00
2022-10-30T01:01:28.218Z,100.00
2022-10-30T01:03:33.434Z,100.00
2022-10-30T01:05:37.283Z,100.00
2022-10-30T01:07:39.994Z,100.00
2022-10-30T01:09:43.376Z,100.00
2022-10-30T01:11:46.531Z,100.00
2022-10-30T01:13:51.437Z,100.00
2022-10-30T01:16:20.971Z,100.00
2022-10-30T01:18:42.276Z,100.00
2022-10-30T01:21:05.056Z,100.00
2022-10-30T01:23:15.144Z,100.00
2022-10-30T01:25:30.656Z,100.00
2022-10-30T01:27:47.584Z,100.00
2022-10-30T01:30:03.691Z,100.00
2022-10-30T01:32:23.456Z,100.00
2022-10-30T01:34:35.601Z,100.00
2022-10-30T01:36:43.748Z,100.00
2022-10-30T01:38:52.511Z,100.00
2022-10-30T01:40:55.317Z,100.00
2022-10-30T01:42:59.697Z,100.00
2022-10-30T01:45:07.242Z,100.00
2022-10-30T01:47:24.056Z,100.00
2022-10-30T01:49:43.644Z,100.00
2022-10-30T01:51:56.214Z,100.00
2022-10-30T01:54:08.201Z,100.00
2022-10-30T01:56:20.447Z,100.00
2022-10-30T01:58:28.946Z,100.00
2022-10-30T02:00:33.538Z,100.00
2022-10-30T02:02:36.692Z,100.00
2022-10-30T02:04:41.314Z,100.00
2022-10-30T02:06:44.393Z,100.00
2022-10-30T02:08:47.137Z,100.00
2022-10-30T02:10:53.947Z,100.00
2022-10-30T02:13:09.159Z,100.00
2022-10-30T02:15:12.741Z,100.00
2022-10-30T02:17:15.740Z,100.00
2022-10-30T02:19:18.838Z,100.00
2022-10-30T02:21:23.321Z,100.00
2022-10-30T02:23:26.504Z,100.00
2022-10-30T02:25:30.838Z,100.00
2022-10-30T02:27:34.286Z,100.00
2022-10-30T02:29:37.180Z,100.00
2022-10-30T02:31:41.922Z,100.00
2022-10-30T02:33:46.815Z,100.00
2022-10-30T02:35:49.549Z,100.00
2022-10-30T02:37:53.698Z,100.00
2022-10-30T02:39:56.449Z,100.00
2022-10-30T02:42:01.900Z,100.00
2022-10-30T02:44:05.276Z,100.00
2022-10-30T02:46:08.784Z,100.00
2022-10-30T02:48:12.412Z,100.00
2022-10-30T02:50:15.779Z,100.00
2022-10-30T02:52:18.642Z,100.00
2022-10-30T02:54:22.776Z,100.00
2022-10-30T02:56:25.782Z,100.00
2022-10-30T02:58:29.591Z,100.00
2022-10-30T03:00:32.658Z,100.00
2022-10-30T03:02:35.497Z,100.00
2022-10-30T03:04:38.343Z,100.00
2022-10-30T03:06:41.191Z,100.00
2022-10-30T03:08:45.239Z,100.00
2022-10-30T03:10:49.608Z,100.00
2022-10-30T03:12:52.414Z,100.00
2022-10-30T03:14:55.168Z,100.00
2022-10-30T03:16:57.990Z,100.00
2022-10-30T03:19:01.120Z,100.00
2022-10-30T03:21:06.961Z,100.00
2022-10-30T03:23:09.653Z,100.00
2022-10-30T03:25:12.351Z,100.00
2022-10-30T03:27:16.455Z,100.00
2022-10-30T03:29:19.270Z,100.00
2022-10-30T03:31:22.368Z,100.00
2022-10-30T03:33:39.100Z,100.00
2022-10-30T03:35:41.763Z,100.00
2022-10-30T03:37:44.407Z,100.00
2022-10-30T03:39:47.227Z,100.00
2022-10-30T03:41:49.900Z,100.00
2022-10-30T03:43:55.004Z,100.00
2022-10-30T03:45:58.528Z,100.00
2022-10-30T03:48:01.940Z,100.00
2022-10-30T03:50:05.186Z,99.78
2022-10-30T03:52:08.234Z,98.78
2022-10-30T03:54:11.131Z,98.44
2022-10-30T03:56:14.536Z,98.32
2022-10-30T03:58:23.911Z,99.34
2022-10-30T04:00:30.301Z,98.75
2022-10-30T04:02:34.544Z,99.73
2022-10-30T04:04:37.383Z,100.00
2022-10-30T04:06:40.121Z,100.00
2022-10-30T04:08:43.953Z,100.00
2022-10-30T04:10:48.251Z,100.00
2022-10-30T04:12:51.155Z,99.77
2022-10-30T04:14:54.236Z,99.86
2022-10-30T04:16:58.446Z,100.00
2022-10-30T04:19:01.540Z,100.00
2022-10-30T04:21:04.468Z,100.00
2022-10-30T04:23:13.469Z,100.00
2022-10-30T04:25:16.418Z,100.00
2022-10-30T04:27:19.919Z,100.00
2022-10-30T04:29:22.830Z,100.00
2022-10-30T04:31:25.681Z,98.11
2022-10-30T04:33:30.137Z,96.83
2022-10-30T04:35:37.837Z,96.15
2022-10-30T04:37:44.810Z,95.38
2022-10-30T04:39:49.378Z,94.92
2022-10-30T04:41:57.186Z,94.64
2022-10-30T04:44:07.395Z,93.56
2022-10-30T04:46:10.155Z,93.81
2022-10-30T04:48:14.851Z,93.98
2022-10-30T04:50:20.435Z,93.09
2022-10-30T04:52:23.262Z,92.82
2022-10-30T04:54:28.602Z,92.95
2022-10-30T04:56:32.902Z,92.91
2022-10-30T04:58:35.795Z,92.70
2022-10-30T05:00:41.313Z,92.90
2022-10-30T05:02:49.374Z,93.51
2022-10-30T05:04:52.110Z,92.74
2022-10-30T05:06:56.224Z,92.34
2022-10-30T05:08:58.980Z,92.40
2022-10-30T05:11:10.200Z,92.07
2022-10-30T05:13:13.247Z,91.20
2022-10-30T05:15:18.195Z,91.25
2022-10-30T05:17:21.556Z,90.79
2022-10-30T05:19:25.327Z,90.22
2022-10-30T05:21:31.095Z,90.04
2022-10-30T05:23:36.000Z,90.09
2022-10-30T05:25:39.345Z,91.43
2022-10-30T05:27:43.981Z,92.23
2022-10-30T05:29:47.946Z,92.56
2022-10-30T05:31:51.577Z,92.62
2022-10-30T05:34:12.078Z,94.06
2022-10-30T05:36:15.912Z,94.10
2022-10-30T05:38:19.324Z,94.77
2022-10-30T05:40:23.585Z,95.32
2022-10-30T05:42:26.691Z,97.00
2022-10-30T05:44:55.041Z,98.17
2022-10-30T05:46:57.351Z,98.84
2022-10-30T05:49:03.965Z,100.00
2022-10-30T05:51:08.536Z,100.00
2022-10-30T05:53:13.385Z,100.00
2022-10-30T05:55:16.540Z,100.00
2022-10-30T05:57:37.470Z,100.00
2022-10-30T05:59:40.158Z,100.00
2022-10-30T06:03:48.519Z,100.00
2022-10-30T06:05:52.251Z,100.00
2022-10-30T06:07:56.329Z,98.14
2022-10-30T06:09:59.045Z,95.85
2022-10-30T06:12:27.979Z,91.50
2022-10-30T06:15:04.970Z,93.11
2022-10-30T06:17:08.373Z,91.09
2022-10-30T06:19:25.882Z,87.55
2022-10-30T06:21:32.870Z,87.61
2022-10-30T06:23:59.987Z,84.84
2022-10-30T06:26:11.156Z,80.21
2022-10-30T06:28:25.433Z,84.61
2022-10-30T06:30:30.356Z,87.58
2022-10-30T06:32:33.173Z,90.88
2022-10-30T06:34:36.346Z,93.23
2022-10-30T06:36:39.359Z,94.76
2022-10-30T06:38:42.208Z,95.84
2022-10-30T06:40:46.010Z,97.38
2022-10-30T06:43:02.181Z,98.35
2022-10-30T06:45:13.004Z,98.58
2022-10-30T06:47:17.164Z,99.10
2022-10-30T06:49:19.981Z,100.00
2022-10-30T06:51:23.374Z,100.00
2022-10-30T06:53:28.769Z,100.00
2022-10-30T06:55:38.669Z,100.00
2022-10-30T06:58:00.076Z,100.00
2022-10-30T07:00:25.336Z,100.00
2022-10-30T07:02:56.518Z,100.00
2022-10-30T07:04:59.604Z,100.00
2022-10-30T07:07:02.466Z,100.00
2022-10-30T07:09:06.072Z,100.00
2022-10-30T07:11:09.528Z,100.00
2022-10-30T07:13:24.240Z,100.00
2022-10-30T07:15:45.917Z,100.00
2022-10-30T07:18:03.883Z,100.00
2022-10-30T07:20:11.307Z,100.00
2022-10-30T07:22:14.471Z,100.00
2022-10-30T07:24:20.827Z,100.00
2022-10-30T07:26:42.352Z,100.00
2022-10-30T07:29:18.450Z,100.00
2022-10-30T07:31:49.558Z,100.00
2022-10-30T07:34:26.277Z,100.00
2022-10-30T07:36:47.370Z,100.00
2022-10-30T07:39:10.590Z,100.00
2022-10-30T07:41:19.660Z,100.00
2022-10-30T07:43:25.937Z,100.00
2022-10-30T07:45:37.809Z,100.00
2022-10-30T07:48:03.709Z,100.00
2022-10-30T07:50:23.034Z,100.00
2022-10-30T07:52:26.070Z,100.00
2022-10-30T07:54:28.831Z,100.00
2022-10-30T07:56:35.009Z,100.00
2022-10-30T07:59:09.726Z,100.00
2022-10-30T08:01:30.852Z,100.00
2022-10-30T08:03:44.797Z,100.00
2022-10-30T08:06:06.555Z,100.00
2022-10-30T08:08:14.277Z,100.00
2022-10-30T08:10:17.311Z,100.00
2022-10-30T08:12:20.040Z,100.00
2022-10-30T08:14:22.961Z,100.00
2022-10-30T08:16:27.154Z,100.00
2022-10-30T08:18:29.991Z,100.00
2022-10-30T08:20:32.811Z,100.00
2022-10-30T08:22:44.450Z,100.00
2022-10-30T08:24:47.250Z,100.00
2022-10-30T08:26:52.763Z,100.00
2022-10-30T08:28:55.823Z,100.00
2022-10-30T08:31:02.460Z,100.00
2022-10-30T08:33:25.571Z,99.87
2022-10-30T08:36:01.461Z,99.06
2022-10-30T08:38:05.793Z,99.39
2022-10-30T08:40:10.845Z,99.17
2022-10-30T08:42:24.887Z,98.59
2022-10-30T08:44:30.471Z,96.78
2022-10-30T08:46:51.970Z,96.07
2022-10-30T08:48:55.971Z,95.31
2022-10-30T08:51:01.084Z,95.53
2022-10-30T08:53:13.286Z,95.26
2022-10-30T08:55:16.345Z,95.64
2022-10-30T08:57:19.189Z,95.12
2022-10-30T08:59:22.076Z,93.50
2022-10-30T09:01:27.254Z,94.25
2022-10-30T09:03:59.038Z,93.43
2022-10-30T09:06:31.636Z,91.92
2022-10-30T09:08:57.207Z,91.90
2022-10-30T09:11:17.550Z,91.86
2022-10-30T09:13:20.721Z,90.96
2022-10-30T09:15:24.557Z,90.06
2022-10-30T09:17:31.028Z,89.59
2022-10-30T09:19:33.849Z,89.79
2022-10-30T09:21:36.760Z,90.18
2022-10-30T09:23:41.095Z,89.12
2022-10-30T09:26:04.945Z,87.74
2022-10-30T09:28:19.149Z,86.34
2022-10-30T09:30:44.896Z,87.65
2022-10-30T09:32:57.110Z,87.26
2022-10-30T09:35:11.712Z,86.76
2022-10-30T09:37:16.108Z,86.88
2022-10-30T09:39:21.880Z,87.51
2022-10-30T09:41:41.132Z,87.10
2022-10-30T09:43:58.103Z,85.10
2022-10-30T09:46:16.874Z,84.03
2022-10-30T09:48:58.551Z,83.29
2022-10-30T09:51:14.670Z,84.45
2022-10-30T09:53:26.443Z,83.63
2022-10-30T09:55:35.616Z,84.01
2022-10-30T09:57:51.083Z,83.52
2022-10-30T10:00:03.920Z,82.00
2022-10-30T10:02:22.401Z,81.52
2022-10-30T10:04:32.894Z,80.00
2022-10-30T10:07:03.324Z,79.68
2022-10-30T10:09:22.171Z,78.67
2022-10-30T10:11:57.240Z,76.61
2022-10-30T10:14:08.518Z,75.39
2022-10-30T10:16:20.111Z,75.04
2022-10-30T10:18:28.038Z,78.27
2022-10-30T10:20:36.538Z,78.05
2022-10-30T10:22:44.084Z,78.26
2022-10-30T10:24:47.719Z,78.40
2022-10-30T10:26:55.844Z,77.17
2022-10-30T10:29:33.188Z,74.86
2022-10-30T10:31:45.148Z,75.42
2022-10-30T10:34:01.635Z,74.01
2022-10-30T10:36:13.443Z,69.54
2022-10-30T10:38:30.369Z,71.10
2022-10-30T10:40:50.282Z,70.51
2022-10-30T10:43:09.734Z,69.86
2022-10-30T10:45:26.199Z,70.55
2022-10-30T10:47:56.140Z,71.30
2022-10-30T10:50:15.514Z,72.50
2022-10-30T10:52:22.588Z,70.55
2022-10-30T10:54:30.246Z,71.41
2022-10-30T10:56:37.615Z,69.26
2022-10-30T10:58:49.683Z,69.15
2022-10-30T11:00:56.391Z,67.96
2022-10-30T11:03:06.379Z,69.17
2022-10-30T11:05:19.897Z,68.95
2022-10-30T11:07:24.806Z,69.45
2022-10-30T11:09:28.409Z,69.57
2022-10-30T11:11:31.276Z,69.79
2022-10-30T11:13:37.572Z,70.28
2022-10-30T11:15:54.495Z,69.43
2022-10-30T11:18:03.706Z,69.34
2022-10-30T11:20:19.599Z,67.08
2022-10-30T11:22:29.554Z,66.34
2022-10-30T11:24:33.921Z,64.32
2022-10-30T11:26:36.584Z,63.75
2022-10-30T11:28:49.433Z,63.67
2022-10-30T11:30:52.053Z,62.56
2022-10-30T11:32:57.096Z,61.71
2022-10-30T11:35:13.732Z,59.58
2022-10-30T11:37:31.313Z,59.37
2022-10-30T11:39:35.455Z,58.68
2022-10-30T11:41:39.115Z,58.96
2022-10-30T11:43:42.798Z,59.13
2022-10-30T11:45:45.636Z,59.64
2022-10-30T11:47:48.606Z,60.64
2022-10-30T11:49:55.051Z,57.78
2022-10-30T11:51:59.911Z,59.07
2022-10-30T11:54:03.207Z,59.22
2022-10-30T11:56:16.122Z,61.70
2022-10-30T11:58:28.051Z,58.73
2022-10-30T12:00:34.360Z,57.23
2022-10-30T12:02:42.441Z,53.97
2022-10-30T12:04:45.200Z,50.13
2022-10-30T12:06:47.944Z,48.23
2022-10-30T12:09:03.203Z,48.37
2022-10-30T12:11:07.648Z,48.78
2022-10-30T12:13:15.989Z,49.21
2022-10-30T12:15:22.381Z,50.82
2022-10-30T12:17:25.099Z,50.25
2022-10-30T12:19:27.896Z,49.34
2022-10-30T12:21:35.947Z,46.96
2022-10-30T12:23:40.197Z,48.70
2022-10-30T12:25:48.645Z,47.39
2022-10-30T12:27:59.270Z,45.67
2022-10-30T12:30:09.733Z,46.13
2022-10-30T12:32:18.552Z,44.31
2022-10-30T12:34:34.986Z,41.02
2022-10-30T12:36:46.573Z,39.85
2022-10-30T12:38:53.156Z,40.67
2022-10-30T12:41:09.848Z,39.58
2022-10-30T12:43:20.608Z,38.24
2022-10-30T12:45:29.323Z,38.18
2022-10-30T12:47:42.370Z,38.79
2022-10-30T12:49:51.465Z,38.27
2022-10-30T12:52:00.291Z,36.56
2022-10-30T12:54:09.456Z,37.24
2022-10-30T12:56:19.540Z,34.82
2022-10-30T12:58:29.020Z,36.11
2022-10-30T13:00:38.136Z,34.33
2022-10-30T13:02:50.983Z,33.34
2022-10-30T13:04:59.116Z,33.40
2022-10-30T13:07:11.994Z,34.15
2022-10-30T13:09:20.331Z,35.15
2022-10-30T13:11:33.888Z,35.52
2022-10-30T13:13:41.436Z,37.10
2022-10-30T13:15:48.361Z,38.03
2022-10-30T13:17:51.480Z,33.69
2022-10-30T13:19:54.215Z,33.90
2022-10-30T13:22:03.415Z,34.14
2022-10-30T13:24:12.049Z,37.36
2022-10-30T13:26:23.389Z,40.47
2022-10-30T13:28:34.340Z,36.45
2022-10-30T13:30:42.109Z,36.49
2022-10-30T13:33:00.589Z,35.33
2022-10-30T13:35:17.913Z,37.14
2022-10-30T13:37:28.365Z,36.99
2022-10-30T13:39:39.477Z,34.70
2022-10-30T13:41:59.442Z,35.38
2022-10-30T13:44:16.356Z,32.07
2022-10-30T13:46:31.336Z,31.47
2022-10-30T13:48:54.588Z,32.26
2022-10-30T13:51:17.509Z,41.44
2022-10-30T13:53:25.705Z,44.86
2022-10-30T13:55:31.004Z,44.79
2022-10-30T13:57:41.804Z,47.84
2022-10-30T13:59:54.328Z,47.49
2022-10-30T14:02:02.702Z,48.61
2022-10-30T14:04:11.633Z,48.15
2022-10-30T14:06:25.661Z,51.33
2022-10-30T14:08:37.045Z,51.62
2022-10-30T14:10:46.190Z,52.61
2022-10-30T14:12:54.075Z,53.38
2022-10-30T14:15:04.877Z,55.55
2022-10-30T14:17:15.797Z,56.88
2022-10-30T14:19:19.825Z,57.44
2022-10-30T14:21:45.059Z,58.32
2022-10-30T14:23:47.871Z,57.87
2022-10-30T14:26:14.381Z,57.31
2022-10-30T14:28:21.042Z,57.48
2022-10-30T14:30:28.775Z,55.00
2022-10-30T14:32:42.991Z,54.25
2022-10-30T14:35:00.229Z,53.93
2022-10-30T14:37:03.293Z,54.92
2022-10-30T14:39:30.903Z,53.87
2022-10-30T14:41:49.708Z,53.31
2022-10-30T14:44:27.875Z,52.74
2022-10-30T14:46:38.786Z,53.98
2022-10-30T14:48:53.414Z,52.61
2022-10-30T14:51:06.698Z,53.86
2022-10-30T14:53:35.223Z,53.92
2022-10-30T14:55:54.297Z,54.25
2022-10-30T14:58:18.425Z,55.92
2022-10-30T15:00:39.012Z,55.38
2022-10-30T15:02:53.224Z,55.22
2022-10-30T15:05:12.778Z,55.04
2022-10-30T15:07:23.478Z,55.66
2022-10-30T15:09:41.428Z,58.56
2022-10-30T15:12:19.178Z,59.19
2022-10-30T15:14:40.449Z,59.83
2022-10-30T15:16:52.569Z,60.64
2022-10-30T15:19:01.745Z,63.30
2022-10-30T15:21:07.315Z,63.61
2022-10-30T15:23:13.313Z,64.86
2022-10-30T15:25:19.798Z,65.86
2022-10-30T15:27:25.163Z,65.82
2022-10-30T15:29:31.379Z,66.79
2022-10-30T15:31:34.150Z,67.32
2022-10-30T15:33:38.009Z,66.99
2022-10-30T15:35:48.237Z,69.94
2022-10-30T15:38:01.079Z,70.68
2022-10-30T15:40:19.045Z,71.63
2022-10-30T15:42:22.584Z,73.24
2022-10-30T15:44:28.598Z,75.33
2022-10-30T15:46:32.265Z,77.14
2022-10-30T15:48:36.442Z,78.73
2022-10-30T15:50:45.989Z,80.23
2022-10-30T15:52:49.001Z,81.55
2022-10-30T15:54:57.099Z,80.81
2022-10-30T15:57:36.569Z,80.42
2022-10-30T15:59:25.862Z,78.48
2022-10-30T16:01:32.142Z,78.94
2022-10-30T16:03:34.986Z,79.05
2022-10-30T16:05:37.689Z,79.10
2022-10-30T16:07:47.141Z,79.88
2022-10-30T16:09:54.722Z,82.19
2022-10-30T16:12:00.723Z,82.57
2022-10-30T16:14:08.791Z,81.82
2022-10-30T16:18:26.979Z,83.86
2022-10-30T16:20:29.980Z,85.28
2022-10-30T16:22:37.893Z,87.23
2022-10-30T16:24:42.411Z,86.16
2022-10-30T16:26:45.646Z,87.06
2022-10-30T16:28:48.838Z,87.26
2022-10-30T16:30:52.051Z,86.10
2022-10-30T16:32:55.412Z,88.85
2022-10-30T16:34:59.962Z,90.18
2022-10-30T16:37:04.227Z,91.36
2022-10-30T16:39:07.056Z,90.09
2022-10-30T16:41:13.431Z,92.00
2022-10-30T16:43:26.584Z,93.27
2022-10-30T16:45:49.858Z,95.39
2022-10-30T16:47:58.277Z,95.55
2022-10-30T16:50:01.168Z,95.76
2022-10-30T16:52:07.164Z,94.80
2022-10-30T16:54:24.262Z,96.01
2022-10-30T16:56:30.891Z,96.73
2022-10-30T16:58:33.853Z,97.00
2022-10-30T17:00:37.261Z,96.26
2022-10-30T17:02:48.457Z,97.13
2022-10-30T17:04:57.193Z,99.01
2022-10-30T17:07:16.712Z,99.68
2022-10-30T17:09:24.924Z,100.00
2022-10-30T17:11:41.979Z,100.00
2022-10-30T17:13:59.872Z,100.00
2022-10-30T17:16:21.776Z,100.00
2022-10-30T17:18:32.654Z,100.00
2022-10-30T17:20:35.463Z,100.00
2022-10-30T17:22:39.390Z,100.00
2022-10-30T17:24:42.228Z,100.00
2022-10-30T17:26:56.289Z,100.00
2022-10-30T17:28:59.127Z,100.00
2022-10-30T17:31:21.108Z,100.00
2022-10-30T17:33:35.144Z,100.00
2022-10-30T17:35:38.032Z,100.00
2022-10-30T17:37:40.765Z,100.00
2022-10-30T17:39:43.521Z,100.00
2022-10-30T17:41:47.758Z,100.00
2022-10-30T17:43:52.708Z,100.00
2022-10-30T17:45:55.810Z,100.00
2022-10-30T17:47:58.988Z,100.00
2022-10-30T17:50:03.126Z,100.00
2022-10-30T17:52:05.951Z,100.00
2022-10-30T17:54:13.846Z,100.00
2022-10-30T17:56:18.778Z,100.00
2022-10-30T17:58:23.181Z,100.00
2022-10-30T18:00:25.984Z,100.00
2022-10-30T18:02:28.972Z,100.00
2022-10-30T18:04:31.758Z,100.00
2022-10-30T18:06:34.550Z,100.00
2022-10-30T18:08:37.461Z,100.00
2022-10-30T18:10:40.221Z,100.00
2022-10-30T18:12:44.647Z,100.00
2022-10-30T18:14:48.692Z,100.00
2022-10-30T18:16:53.019Z,100.00
2022-10-30T18:18:58.744Z,98.80
2022-10-30T18:21:01.403Z,95.99
2022-10-30T18:23:04.816Z,97.14
2022-10-30T18:25:16.346Z,96.05
2022-10-30T18:27:18.987Z,95.34
2022-10-30T18:29:21.724Z,95.66
2022-10-30T18:31:25.756Z,93.38
2022-10-30T18:33:28.582Z,96.61
2022-10-30T18:35:33.767Z,96.46
2022-10-30T18:37:36.384Z,93.83
2022-10-30T18:39:39.032Z,94.14
2022-10-30T18:41:43.562Z,93.23
2022-10-30T18:43:47.242Z,90.88
2022-10-30T18:45:50.251Z,91.34
2022-10-30T18:47:55.912Z,89.22
2022-10-30T18:49:58.762Z,89.90
2022-10-30T18:52:01.493Z,91.01
2022-10-30T18:54:04.503Z,89.73
2022-10-30T18:56:10.588Z,91.51
2022-10-30T18:58:13.286Z,90.66
2022-10-30T19:00:18.590Z,90.05
2022-10-30T19:02:24.165Z,89.40
2022-10-30T19:04:28.377Z,89.21
2022-10-30T19:06:32.840Z,90.21
2022-10-30T19:08:35.612Z,91.61
2022-10-30T19:10:40.339Z,91.40
2022-10-30T19:13:04.088Z,91.24
2022-10-30T19:15:15.448Z,89.06
2022-10-30T19:17:18.116Z,88.49
2022-10-30T19:19:20.779Z,87.43
2022-10-30T19:21:27.848Z,89.05
2022-10-30T19:23:30.785Z,89.38
2022-10-30T19:25:35.310Z,91.06
2022-10-30T19:27:38.025Z,93.06
2022-10-30T19:29:40.766Z,92.99
2022-10-30T19:31:44.043Z,91.76
2022-10-30T19:33:51.330Z,91.30
2022-10-30T19:36:00.920Z,90.71
2022-10-30T19:38:07.994Z,90.75
2022-10-30T19:40:19.426Z,88.22
2022-10-30T19:42:22.116Z,88.51
2022-10-30T19:44:24.930Z,91.12
2022-10-30T19:46:27.581Z,92.11
2022-10-30T19:48:56.116Z,92.95
2022-10-30T19:50:52.973Z,94.79
2022-10-30T19:52:57.947Z,95.96
2022-10-30T19:55:02.190Z,98.06
2022-10-30T19:57:06.511Z,98.19
2022-10-30T19:59:10.941Z,97.59
2022-10-30T20:01:14.349Z,98.20
2022-10-30T20:03:18.783Z,97.10
2022-10-30T20:05:23.882Z,98.64
2022-10-30T20:07:26.542Z,97.18
2022-10-30T20:09:31.807Z,99.53
2022-10-30T20:11:35.900Z,99.08
2022-10-30T20:13:38.692Z,99.86
2022-10-30T20:15:41.406Z,100.00
2022-10-30T20:17:44.663Z,99.52
2022-10-30T20:19:47.292Z,99.74
2022-10-30T20:21:49.938Z,96.04
2022-10-30T20:23:52.652Z,93.45
2022-10-30T20:25:58.983Z,93.55
2022-10-30T20:28:06.891Z,92.90
2022-10-30T20:30:15.677Z,93.56
2022-10-30T20:32:18.558Z,95.01
2022-10-30T20:34:21.273Z,94.90
2022-10-30T20:36:24.000Z,93.32
2022-10-30T20:38:29.109Z,93.97
2022-10-30T20:40:32.446Z,93.68
2022-10-30T20:42:37.304Z,93.26
2022-10-30T20:44:41.559Z,93.25
2022-10-30T20:46:44.212Z,92.44
2022-10-30T20:48:47.235Z,91.69
2022-10-30T20:50:52.706Z,92.26
2022-10-30T20:52:56.327Z,91.89
2022-10-30T20:54:59.107Z,93.58
2022-10-30T20:57:01.791Z,94.73
2022-10-30T20:59:04.468Z,96.00
2022-10-30T21:01:08.702Z,95.65
2022-10-30T21:03:14.456Z,93.80
2022-10-30T21:05:42.275Z,94.62
2022-10-30T21:07:40.065Z,95.76
2022-10-30T21:09:42.858Z,96.94
2022-10-30T21:11:45.715Z,100.00
2022-10-30T21:13:48.399Z,100.00
2022-10-30T21:15:51.468Z,97.62
2022-10-30T21:17:55.676Z,100.00
2022-10-30T21:19:58.469Z,100.00
2022-10-30T21:22:01.093Z,100.00
2022-10-30T21:24:03.807Z,100.00
2022-10-30T21:26:10.979Z,100.00
2022-10-30T21:28:13.828Z,100.00
2022-10-30T21:30:16.522Z,99.98
2022-10-30T21:32:19.239Z,100.00
2022-10-30T21:34:23.278Z,100.00
2022-10-30T21:36:26.040Z,100.00
2022-10-30T21:38:28.743Z,100.00
2022-10-30T21:40:31.474Z,100.00
2022-10-30T21:42:34.349Z,100.00
2022-10-30T21:44:37.031Z,100.00
2022-10-30T21:46:39.718Z,100.00
2022-10-30T21:48:42.596Z,100.00
2022-10-30T21:50:46.696Z,100.00
2022-10-30T21:52:49.356Z,100.00
2022-10-30T21:54:52.121Z,100.00
2022-10-30T21:56:54.759Z,100.00
2022-10-30T21:58:59.311Z,100.00
2022-10-30T22:01:02.138Z,100.00
2022-10-30T22:03:04.918Z,100.00
2022-10-30T22:05:08.213Z,100.00
2022-10-30T22:07:12.252Z,100.00
2022-10-30T22:09:16.702Z,100.00
2022-10-30T22:11:22.059Z,100.00
2022-10-30T22:13:24.706Z,100.00
2022-10-30T22:15:27.339Z,100.00
2022-10-30T22:17:32.368Z,100.00
2022-10-30T22:19:37.555Z,100.00
2022-10-30T22:21:40.245Z,100.00
2022-10-30T22:23:44.799Z,100.00
2022-10-30T22:25:55.099Z,100.00
2022-10-30T22:27:58.085Z,100.00
2022-10-30T22:30:01.215Z,100.00
2022-10-30T22:32:04.008Z,100.00
2022-10-30T22:34:06.692Z,100.00
2022-10-30T22:36:14.657Z,100.00
2022-10-30T22:38:17.341Z,100.00
2022-10-30T22:40:21.390Z,100.00
2022-10-30T22:42:24.106Z,100.00
2022-10-30T22:44:28.509Z,100.00
2022-10-30T22:46:31.964Z,100.00
2022-10-30T22:48:34.824Z,100.00
2022-10-30T22:50:39.170Z,100.00
2022-10-30T22:52:41.844Z,100.00
2022-10-30T22:54:44.540Z,100.00
2022-10-30T22:56:48.566Z,100.00
2022-10-30T22:58:52.899Z,100.00
2022-10-30T23:00:55.676Z,100.00
2022-10-30T23:02:58.761Z,100.00
2022-10-30T23:05:01.854Z,100.00
2022-10-30T23:07:04.608Z,100.00
2022-10-30T23:09:09.373Z,100.00
2022-10-30T23:11:12.669Z,100.00
2022-10-30T23:13:16.788Z,100.00
2022-10-30T23:15:19.772Z,100.00
2022-10-30T23:17:22.453Z,100.00
2022-10-30T23:19:26.776Z,100.00
2022-10-30T23:21:32.472Z,100.00
2022-10-30T23:23:35.907Z,100.00
2022-10-30T23:25:39.437Z,100.00
2022-10-30T23:27:42.106Z,100.00
2022-10-30T23:29:46.227Z,100.00
2022-10-30T23:31:48.941Z,100.00
2022-10-30T23:33:53.135Z,100.00
2022-10-30T23:36:00.225Z,100.00
2022-10-30T23:38:02.893Z,100.00
2022-10-30T23:40:06.301Z,100.00
2022-10-30T23:42:08.934Z,100.00
2022-10-30T23:44:14.425Z,100.00
2022-10-30T23:46:18.387Z,100.00
2022-10-30T23:48:21.026Z,100.00
2022-10-30T23:50:24.025Z,100.00
2022-10-30T23:52:26.679Z,100.00
2022-10-30T23:54:29.334Z,100.00
2022-10-30T23:56:31.995Z,100.00
2022-10-30T23:58:34.646Z,100.00
